createdAt,value
2019-03-12T00:00:37.561Z,35.41
2019-03-12T00:03:05.692Z,36.66
2019-03-12T00:05:33.891Z,36.72
2019-03-12T00:08:02.050Z,36.31
2019-03-12T00:10:30.194Z,36.08
2019-03-12T00:12:58.388Z,36.76
2019-03-12T00:15:26.556Z,36.51
2019-03-12T00:17:54.827Z,36.91
2019-03-12T00:20:23.114Z,37.94
2019-03-12T00:22:51.468Z,37.16
2019-03-12T00:25:19.673Z,38.02
2019-03-12T00:27:47.815Z,36.58
2019-03-12T00:30:16.019Z,38.57
2019-03-12T00:32:44.390Z,36.80
2019-03-12T00:35:12.723Z,37.73
2019-03-12T00:37:40.943Z,36.85
2019-03-12T00:40:09.140Z,37.17
2019-03-12T00:42:37.310Z,37.87
2019-03-12T00:45:05.782Z,36.92
2019-03-12T00:47:33.972Z,37.52
2019-03-12T00:50:21.296Z,37.19
2019-03-12T00:52:49.431Z,37.47
2019-03-12T00:55:17.665Z,37.75
2019-03-12T00:57:45.827Z,37.65
2019-03-12T01:00:14.712Z,37.12
2019-03-12T01:02:42.921Z,35.90
2019-03-12T01:05:11.109Z,38.13
2019-03-12T01:07:39.325Z,35.09
2019-03-12T01:10:08.296Z,36.81
2019-03-12T01:12:36.388Z,37.14
2019-03-12T01:15:23.635Z,37.20
2019-03-12T01:17:51.784Z,37.29
2019-03-12T01:20:19.925Z,37.70
2019-03-12T01:22:48.000Z,37.17
2019-03-12T01:25:16.164Z,36.81
2019-03-12T01:27:44.289Z,37.71
2019-03-12T01:30:32.199Z,38.41
2019-03-12T01:33:00.327Z,37.23
2019-03-12T01:35:28.429Z,39.23
2019-03-12T01:37:56.576Z,38.00
2019-03-12T01:40:24.732Z,37.18
2019-03-12T01:42:52.928Z,36.82
2019-03-12T01:45:21.017Z,35.44
2019-03-12T01:48:08.077Z,38.09
2019-03-12T01:50:36.527Z,37.31
2019-03-12T01:53:04.738Z,36.85
2019-03-12T01:55:32.857Z,36.50
2019-03-12T01:58:19.896Z,37.50
2019-03-12T02:00:48.019Z,36.63
2019-03-12T02:03:16.259Z,36.77
2019-03-12T02:05:44.393Z,37.75
2019-03-12T02:08:12.476Z,37.88
2019-03-12T02:10:59.696Z,37.42
2019-03-12T02:13:27.832Z,37.29
2019-03-12T02:15:55.917Z,35.87
2019-03-12T02:18:24.031Z,36.93
2019-03-12T02:20:52.114Z,36.57
2019-03-12T02:23:20.267Z,36.56
2019-03-12T02:25:48.353Z,39.02
2019-03-12T02:28:16.469Z,36.69
2019-03-12T02:30:44.594Z,37.51
2019-03-12T02:33:12.734Z,36.55
2019-03-12T02:35:40.967Z,37.13
2019-03-12T02:38:09.131Z,37.25
2019-03-12T02:40:37.307Z,37.95
2019-03-12T02:43:05.488Z,37.42
2019-03-12T02:45:33.726Z,37.50
2019-03-12T02:48:20.826Z,37.66
2019-03-12T02:50:49.040Z,37.17
2019-03-12T02:53:17.240Z,36.64
2019-03-12T02:55:45.387Z,37.59
2019-03-12T02:58:13.499Z,37.84
2019-03-12T03:00:41.704Z,38.02
2019-03-12T03:03:09.788Z,36.67
2019-03-12T03:08:29.478Z,37.29
2019-03-12T03:10:57.535Z,35.94
2019-03-12T03:13:44.662Z,37.36
2019-03-12T03:16:12.756Z,37.45
2019-03-12T03:18:40.944Z,37.19
2019-03-12T03:21:09.046Z,36.73
2019-03-12T03:23:37.161Z,36.53
2019-03-12T03:26:05.292Z,36.93
2019-03-12T03:28:33.328Z,36.46
2019-03-12T03:31:01.420Z,37.14
2019-03-12T03:33:29.537Z,36.90
2019-03-12T03:35:57.588Z,37.90
2019-03-12T03:38:25.669Z,36.99
2019-03-12T03:40:53.745Z,37.22
2019-03-12T03:43:21.888Z,35.99
2019-03-12T03:46:09.112Z,37.36
2019-03-12T03:48:56.328Z,37.35
2019-03-12T03:51:24.408Z,37.92
2019-03-12T03:53:52.488Z,37.27
2019-03-12T03:56:20.740Z,37.89
2019-03-12T03:58:48.879Z,36.04
2019-03-12T04:01:16.958Z,37.30
2019-03-12T04:03:45.041Z,38.22
2019-03-12T04:06:13.113Z,36.02
2019-03-12T04:08:41.204Z,36.59
2019-03-12T04:11:09.314Z,36.86
2019-03-12T04:13:37.384Z,37.47
2019-03-12T04:16:05.472Z,37.04
2019-03-12T04:18:33.530Z,37.44
2019-03-12T04:21:01.681Z,35.90
2019-03-12T04:23:29.968Z,37.02
2019-03-12T04:25:58.000Z,37.02
2019-03-12T04:28:26.112Z,38.89
2019-03-12T04:30:54.238Z,36.90
2019-03-12T04:33:41.512Z,36.43
2019-03-12T04:36:09.655Z,36.71
2019-03-12T04:38:37.863Z,37.80
2019-03-12T04:41:06.015Z,36.62
2019-03-12T04:43:34.107Z,38.38
2019-03-12T04:46:02.252Z,36.70
2019-03-12T04:48:30.447Z,37.63
2019-03-12T04:50:58.632Z,35.80
2019-03-12T04:53:26.708Z,39.32
2019-03-12T04:55:54.845Z,36.68
2019-03-12T05:01:13.650Z,38.10
2019-03-12T05:03:41.832Z,37.34
2019-03-12T05:06:09.954Z,37.84
2019-03-12T05:08:38.188Z,38.02
2019-03-12T05:11:25.412Z,36.98
2019-03-12T05:14:12.634Z,36.59
2019-03-12T05:16:40.816Z,37.55
2019-03-12T05:19:08.980Z,37.44
2019-03-12T05:21:37.099Z,37.23
2019-03-12T05:24:05.220Z,37.60
2019-03-12T05:26:33.329Z,37.25
2019-03-12T05:29:01.472Z,37.85
2019-03-12T05:31:29.621Z,37.72
2019-03-12T05:33:58.144Z,36.25
2019-03-12T05:36:45.435Z,37.50
2019-03-12T05:39:13.605Z,35.18
2019-03-12T05:41:41.716Z,37.42
2019-03-12T05:44:10.013Z,38.13
2019-03-12T05:46:38.150Z,36.66
2019-03-12T05:49:06.304Z,37.62
2019-03-12T05:51:34.580Z,37.98
2019-03-12T05:56:50.180Z,37.70
2019-03-12T05:59:18.436Z,37.30
2019-03-12T06:01:46.897Z,35.77
2019-03-12T06:04:15.127Z,34.90
2019-03-12T06:06:43.441Z,37.65
2019-03-12T06:09:11.582Z,38.23
2019-03-12T06:11:39.706Z,37.16
2019-03-12T06:14:07.825Z,38.38
2019-03-12T06:16:35.901Z,37.24
2019-03-12T06:19:04.166Z,36.30
2019-03-12T06:21:32.360Z,36.75
2019-03-12T06:24:00.786Z,37.24
2019-03-12T06:26:28.977Z,37.14
2019-03-12T06:28:57.284Z,37.95
2019-03-12T06:31:59.501Z,36.65
2019-03-12T06:34:52.519Z,38.20
2019-03-12T06:37:51.863Z,37.46
2019-03-12T06:40:28.737Z,36.13
2019-03-12T06:43:06.301Z,36.32
2019-03-12T06:45:59.302Z,37.54
2019-03-12T06:48:37.043Z,38.00
2019-03-12T06:51:26.939Z,38.17
2019-03-12T06:54:14.105Z,36.79
2019-03-12T06:57:04.334Z,35.95
2019-03-12T06:59:41.431Z,37.78
2019-03-12T07:02:27.005Z,38.13
2019-03-12T07:05:16.927Z,37.32
2019-03-12T07:07:52.491Z,37.52
2019-03-12T07:10:30.784Z,37.77
2019-03-12T07:13:36.303Z,38.78
2019-03-12T07:16:12.364Z,38.65
2019-03-12T07:19:05.519Z,37.44
2019-03-12T07:22:02.375Z,37.62
2019-03-12T07:24:44.520Z,37.20
2019-03-12T07:27:37.642Z,38.23
2019-03-12T07:30:23.963Z,36.18
2019-03-12T07:33:26.227Z,39.52
2019-03-12T07:36:24.626Z,36.90
2019-03-12T07:38:59.284Z,37.24
2019-03-12T07:41:43.425Z,37.88
2019-03-12T07:44:39.592Z,38.44
2019-03-12T07:47:45.035Z,38.07
2019-03-12T07:50:31.030Z,37.43
2019-03-12T07:53:17.484Z,38.23
2019-03-12T07:56:07.424Z,36.17
2019-03-12T07:58:45.608Z,37.30
2019-03-12T08:01:18.779Z,37.42
2019-03-12T08:04:04.784Z,37.05
2019-03-12T08:07:12.986Z,38.41
2019-03-12T08:09:56.659Z,39.00
2019-03-12T08:12:53.007Z,39.66
2019-03-12T08:15:37.044Z,38.10
2019-03-12T08:18:30.011Z,36.69
2019-03-12T08:21:21.615Z,38.91
2019-03-12T08:23:47.908Z,38.12
2019-03-12T08:26:30.500Z,38.52
2019-03-12T08:29:26.700Z,38.35
2019-03-12T08:32:12.739Z,38.53
2019-03-12T08:35:08.434Z,38.41
2019-03-12T08:37:44.281Z,39.54
2019-03-12T08:40:22.690Z,37.83
2019-03-12T08:43:05.679Z,37.15
2019-03-12T08:46:02.082Z,37.58
2019-03-12T08:48:47.923Z,37.96
2019-03-12T08:51:26.756Z,38.80
2019-03-12T08:54:12.901Z,38.58
2019-03-12T08:57:06.104Z,39.15
2019-03-12T08:59:53.275Z,39.54
2019-03-12T09:02:36.421Z,39.13
2019-03-12T09:05:30.012Z,38.38
2019-03-12T09:08:23.176Z,37.06
2019-03-12T09:11:19.464Z,39.77
2019-03-12T09:14:09.501Z,38.46
2019-03-12T09:17:14.747Z,38.57
2019-03-12T09:20:07.899Z,37.74
2019-03-12T09:22:54.992Z,38.44
2019-03-12T09:25:48.340Z,38.58
2019-03-12T09:28:44.761Z,38.04
2019-03-12T09:31:25.478Z,38.66
2019-03-12T09:34:02.913Z,39.21
2019-03-12T09:36:48.668Z,38.42
2019-03-12T09:39:47.663Z,37.76
2019-03-12T09:42:30.539Z,38.14
2019-03-12T09:45:16.375Z,38.46
2019-03-12T09:48:03.509Z,37.51
2019-03-12T09:50:39.220Z,37.93
2019-03-12T09:53:12.842Z,37.75
2019-03-12T09:55:53.407Z,38.31
2019-03-12T09:58:29.557Z,38.59
2019-03-12T10:01:11.497Z,39.65
2019-03-12T10:03:52.544Z,39.12
2019-03-12T10:06:31.575Z,37.52
2019-03-12T10:09:12.628Z,37.88
2019-03-12T10:11:52.368Z,38.18
2019-03-12T10:14:54.896Z,38.12
2019-03-12T10:17:54.071Z,38.71
2019-03-12T10:20:50.234Z,38.03
2019-03-12T10:23:49.408Z,36.73
2019-03-12T10:26:48.917Z,38.13
2019-03-12T10:29:34.688Z,38.20
2019-03-12T10:32:20.638Z,36.55
2019-03-12T10:34:56.035Z,37.53
2019-03-12T10:37:55.396Z,36.53
2019-03-12T10:40:30.883Z,37.83
2019-03-12T10:43:29.575Z,38.76
2019-03-12T10:46:15.301Z,37.91
2019-03-12T10:48:43.844Z,37.85
2019-03-12T10:51:13.166Z,38.04
2019-03-12T10:53:41.445Z,37.08
2019-03-12T10:56:09.600Z,37.19
2019-03-12T10:58:37.766Z,37.11
2019-03-12T11:01:05.898Z,37.83
2019-03-12T11:03:34.119Z,37.19
2019-03-12T11:06:02.263Z,38.75
2019-03-12T11:08:30.479Z,38.04
2019-03-12T11:10:58.644Z,38.25
2019-03-12T11:13:26.839Z,38.87
2019-03-12T11:15:55.037Z,38.02
2019-03-12T11:18:23.238Z,38.15
2019-03-12T11:20:51.375Z,37.76
2019-03-12T11:23:19.512Z,38.70
2019-03-12T11:25:47.678Z,37.77
2019-03-12T11:28:15.863Z,35.15
2019-03-12T11:30:44.007Z,36.20
2019-03-12T11:33:12.207Z,38.51
2019-03-12T11:35:40.441Z,38.35
2019-03-12T11:38:08.608Z,35.08
2019-03-12T11:40:36.738Z,36.74
2019-03-12T11:43:04.929Z,32.36
2019-03-12T11:45:36.687Z,37.15
2019-03-12T11:48:02.914Z,37.83
2019-03-12T11:50:32.307Z,38.50
2019-03-12T11:53:01.197Z,37.75
2019-03-12T11:55:29.971Z,37.18
2019-03-12T11:57:58.138Z,37.98
2019-03-12T12:00:29.551Z,37.94
2019-03-12T12:03:00.278Z,36.97
2019-03-12T12:05:27.587Z,37.67
2019-03-12T12:07:55.767Z,39.37
2019-03-12T12:10:23.966Z,38.82
2019-03-12T12:12:52.169Z,36.30
2019-03-12T12:15:20.344Z,38.38
2019-03-12T12:17:49.451Z,38.24
2019-03-12T12:20:28.832Z,38.17
2019-03-12T12:22:47.801Z,36.33
2019-03-12T12:25:16.034Z,37.46
2019-03-12T12:33:05.278Z,37.31
2019-03-12T12:35:52.467Z,38.10
2019-03-12T12:38:20.710Z,36.92
2019-03-12T12:40:48.907Z,36.17
2019-03-12T12:43:17.278Z,36.30
2019-03-12T12:45:45.485Z,36.51
2019-03-12T12:48:13.823Z,37.52
2019-03-12T12:50:42.073Z,37.28
2019-03-12T12:53:10.397Z,36.52
2019-03-12T12:55:38.651Z,37.00
2019-03-12T12:58:06.919Z,37.48
2019-03-12T13:00:38.006Z,37.67
2019-03-12T13:03:04.997Z,37.31
2019-03-12T13:05:33.284Z,36.83
2019-03-12T13:08:01.566Z,37.53
2019-03-12T13:10:29.845Z,36.67
2019-03-12T13:12:58.059Z,37.11
2019-03-12T13:15:26.267Z,37.56
2019-03-12T13:17:54.489Z,38.03
2019-03-12T13:20:22.700Z,37.67
2019-03-12T13:22:50.948Z,37.54
2019-03-12T13:25:19.606Z,37.72
2019-03-12T13:27:47.861Z,38.19
2019-03-12T13:30:16.769Z,37.61
2019-03-12T13:32:44.990Z,36.27
2019-03-12T13:35:13.547Z,37.15
2019-03-12T13:37:41.844Z,37.27
2019-03-12T13:40:10.639Z,36.21
2019-03-12T13:42:38.989Z,36.21
2019-03-12T13:45:07.548Z,36.92
2019-03-12T13:47:35.790Z,36.21
2019-03-12T13:50:04.342Z,36.58
2019-03-12T13:52:32.615Z,37.97
2019-03-12T13:55:01.663Z,38.04
2019-03-12T13:57:30.599Z,37.64
2019-03-12T13:59:58.815Z,35.81
2019-03-12T14:02:27.185Z,37.35
2019-03-12T14:04:55.540Z,35.40
2019-03-12T14:07:23.790Z,35.23
2019-03-12T14:09:52.256Z,35.76
2019-03-12T14:12:20.475Z,36.71
2019-03-12T14:14:48.832Z,37.61
2019-03-12T14:17:18.557Z,36.07
2019-03-12T14:19:46.718Z,36.75
2019-03-12T14:22:15.035Z,35.83
2019-03-12T14:24:43.450Z,35.10
2019-03-12T14:27:11.615Z,36.11
2019-03-12T14:29:39.942Z,37.69
2019-03-12T14:32:11.841Z,36.35
2019-03-12T14:34:38.820Z,38.17
2019-03-12T14:37:07.053Z,37.43
2019-03-12T14:39:35.424Z,36.44
2019-03-12T14:42:04.986Z,36.71
2019-03-12T14:44:33.296Z,32.64
2019-03-12T14:47:01.564Z,37.27
2019-03-12T14:49:32.071Z,34.90
2019-03-12T14:52:20.482Z,37.59
2019-03-12T14:54:48.838Z,37.34
2019-03-12T14:57:17.153Z,35.34
2019-03-12T14:59:45.495Z,35.74
2019-03-12T15:02:13.856Z,37.97
2019-03-12T15:04:42.227Z,33.87
2019-03-12T15:07:10.545Z,36.52
2019-03-12T15:09:38.808Z,37.62
2019-03-12T15:12:07.104Z,35.88
2019-03-12T15:14:35.453Z,37.12
2019-03-12T15:17:03.940Z,37.47
2019-03-12T15:19:32.337Z,36.56
2019-03-12T15:22:00.690Z,37.81
2019-03-12T15:24:28.948Z,37.82
2019-03-12T15:26:57.373Z,37.79
2019-03-12T15:29:25.592Z,37.23
2019-03-12T15:32:03.657Z,38.18
2019-03-12T15:34:23.999Z,36.79
2019-03-12T15:36:52.268Z,36.96
2019-03-12T15:39:20.537Z,36.46
2019-03-12T15:41:48.926Z,36.64
2019-03-12T15:44:19.188Z,36.75
2019-03-12T15:46:47.136Z,36.82
2019-03-12T15:49:15.423Z,36.78
2019-03-12T15:51:43.673Z,37.04
2019-03-12T15:54:11.894Z,35.84
2019-03-12T15:56:40.222Z,36.90
2019-03-12T15:59:08.475Z,37.81
2019-03-12T16:01:38.466Z,37.04
2019-03-12T16:04:06.858Z,37.42
2019-03-12T16:06:35.194Z,37.71
2019-03-12T16:09:05.358Z,37.60
2019-03-12T16:11:33.612Z,36.96
2019-03-12T16:14:01.865Z,36.14
2019-03-12T16:16:30.116Z,35.68
2019-03-12T16:18:58.385Z,38.08
2019-03-12T16:21:26.699Z,37.53
2019-03-12T16:23:54.954Z,37.40
2019-03-12T16:26:23.157Z,37.12
2019-03-12T16:28:51.360Z,36.22
2019-03-12T16:31:19.615Z,37.29
2019-03-12T16:33:47.886Z,36.69
2019-03-12T16:36:16.117Z,36.74
2019-03-12T16:38:44.414Z,36.45
2019-03-12T16:41:12.617Z,36.43
2019-03-12T16:43:40.809Z,36.77
2019-03-12T16:46:09.060Z,37.27
2019-03-12T16:48:38.587Z,36.53
2019-03-12T16:51:07.127Z,37.64
2019-03-12T16:53:35.345Z,37.22
2019-03-12T16:56:03.655Z,37.35
2019-03-12T16:58:31.919Z,35.65
2019-03-12T17:01:00.151Z,36.73
2019-03-12T17:03:28.356Z,36.72
2019-03-12T17:05:56.576Z,37.58
2019-03-12T17:08:24.860Z,37.33
2019-03-12T17:10:58.524Z,37.04
2019-03-12T17:13:23.066Z,36.70
2019-03-12T17:15:54.805Z,36.07
2019-03-12T17:18:21.149Z,35.68
2019-03-12T17:20:49.421Z,37.49
2019-03-12T17:23:17.658Z,37.29
2019-03-12T17:25:45.884Z,37.30
2019-03-12T17:28:14.116Z,34.83
2019-03-12T17:30:42.335Z,36.37
2019-03-12T17:33:10.582Z,35.09
2019-03-12T17:35:38.842Z,36.44
2019-03-12T17:38:07.166Z,34.40
2019-03-12T17:40:35.381Z,35.98
2019-03-12T17:43:03.648Z,35.54
2019-03-12T17:45:31.856Z,35.45
2019-03-12T17:48:00.073Z,36.77
2019-03-12T17:50:28.307Z,35.35
2019-03-12T17:52:56.501Z,34.59
2019-03-12T17:55:24.721Z,35.78
2019-03-12T17:57:52.927Z,36.18
2019-03-12T18:00:21.974Z,35.40
2019-03-12T18:02:50.185Z,33.69
2019-03-12T18:05:18.509Z,37.21
2019-03-12T18:07:46.762Z,34.52
2019-03-12T18:10:14.972Z,35.74
2019-03-12T18:12:43.117Z,34.79
2019-03-12T18:15:12.401Z,35.61
2019-03-12T18:17:40.576Z,36.27
2019-03-12T18:20:09.727Z,36.71
2019-03-12T18:22:39.092Z,34.50
2019-03-12T18:25:08.893Z,35.54
2019-03-12T18:27:37.063Z,37.08
2019-03-12T18:30:05.718Z,34.79
2019-03-12T18:32:33.875Z,34.70
2019-03-12T18:35:02.062Z,34.50
2019-03-12T18:37:30.457Z,36.41
2019-03-12T18:39:58.623Z,35.03
2019-03-12T18:42:26.773Z,35.12
2019-03-12T18:44:54.942Z,35.66
2019-03-12T18:47:23.475Z,35.42
2019-03-12T18:49:51.713Z,35.11
2019-03-12T18:52:19.912Z,36.88
2019-03-12T18:54:48.404Z,36.23
2019-03-12T18:57:16.996Z,35.29
2019-03-12T18:59:45.143Z,36.29
2019-03-12T19:02:13.291Z,34.73
2019-03-12T19:04:41.467Z,36.98
2019-03-12T19:07:09.648Z,34.89
2019-03-12T19:09:37.819Z,34.88
2019-03-12T19:12:05.955Z,34.62
2019-03-12T19:14:34.116Z,35.45
2019-03-12T19:17:02.243Z,34.41
2019-03-12T19:19:30.313Z,34.06
2019-03-12T19:21:58.383Z,35.17
2019-03-12T19:24:26.463Z,34.02
2019-03-12T19:26:54.605Z,34.73
2019-03-12T19:29:22.676Z,35.55
2019-03-12T19:32:18.683Z,34.54
2019-03-12T19:34:46.852Z,34.09
2019-03-12T19:37:14.983Z,33.96
2019-03-12T19:39:43.043Z,34.79
2019-03-12T19:42:11.146Z,34.34
2019-03-12T19:44:39.217Z,35.71
2019-03-12T19:47:07.296Z,35.35
2019-03-12T19:49:35.368Z,33.93
2019-03-12T19:52:03.768Z,34.10
2019-03-12T19:54:31.864Z,33.86
2019-03-12T19:57:00.047Z,36.28
2019-03-12T19:59:28.111Z,33.33
2019-03-12T20:01:56.796Z,34.65
2019-03-12T20:04:24.878Z,36.48
2019-03-12T20:06:52.959Z,34.15
2019-03-12T20:09:38.939Z,34.54
2019-03-12T20:12:32.384Z,34.40
2019-03-12T20:15:34.888Z,35.44
2019-03-12T20:18:34.132Z,35.42
2019-03-12T20:21:37.012Z,35.20
2019-03-12T20:24:25.619Z,34.52
2019-03-12T20:27:13.631Z,35.12
2019-03-12T20:29:59.515Z,34.71
2019-03-12T20:33:04.831Z,34.01
2019-03-12T20:35:52.432Z,35.09
2019-03-12T20:38:45.819Z,34.15
2019-03-12T20:41:32.079Z,34.62
2019-03-12T20:44:31.336Z,36.07
2019-03-12T20:47:24.360Z,35.72
2019-03-12T20:50:10.443Z,33.98
2019-03-12T20:53:00.724Z,34.85
2019-03-12T20:55:47.007Z,34.20
2019-03-12T20:58:28.803Z,34.78
2019-03-12T21:01:34.611Z,35.29
2019-03-12T21:04:17.392Z,35.20
2019-03-12T21:07:16.787Z,34.56
2019-03-12T21:10:02.734Z,35.78
2019-03-12T21:12:45.649Z,34.77
2019-03-12T21:15:34.441Z,36.00
2019-03-12T21:18:19.837Z,34.40
2019-03-12T21:21:08.579Z,34.52
2019-03-12T21:23:46.732Z,34.04
2019-03-12T21:26:40.001Z,34.55
2019-03-12T21:29:33.355Z,34.84
2019-03-12T21:32:01.457Z,35.87
2019-03-12T21:34:29.710Z,33.66
2019-03-12T21:36:57.923Z,33.96
2019-03-12T21:39:26.045Z,34.16
2019-03-12T21:41:54.233Z,34.64
2019-03-12T21:44:22.459Z,34.85
2019-03-12T21:46:50.721Z,35.04
2019-03-12T21:49:18.933Z,34.52
2019-03-12T21:51:47.165Z,34.15
2019-03-12T21:54:15.461Z,34.27
2019-03-12T21:56:43.652Z,34.79
2019-03-12T21:59:11.945Z,34.72
2019-03-12T22:01:40.149Z,35.35
2019-03-12T22:04:08.424Z,35.06
2019-03-12T22:06:36.576Z,34.71
2019-03-12T22:09:05.205Z,35.45
2019-03-12T22:11:33.380Z,35.07
2019-03-12T22:14:01.602Z,35.30
2019-03-12T22:16:29.813Z,34.67
2019-03-12T22:18:57.996Z,34.44
2019-03-12T22:21:48.194Z,35.52
2019-03-12T22:24:20.277Z,34.20
2019-03-12T22:26:48.442Z,34.39
2019-03-12T22:29:16.772Z,34.53
2019-03-12T22:31:45.024Z,35.12
2019-03-12T22:34:13.262Z,34.90
2019-03-12T22:36:41.462Z,35.48
2019-03-12T22:39:09.904Z,35.24
2019-03-12T22:41:38.079Z,35.86
2019-03-12T22:44:06.315Z,36.10
2019-03-12T22:46:34.634Z,35.53
2019-03-12T22:49:02.890Z,34.67
2019-03-12T22:51:31.058Z,34.98
2019-03-12T22:53:59.300Z,34.99
2019-03-12T22:56:27.535Z,35.25
2019-03-12T22:58:55.711Z,34.64
2019-03-12T23:01:23.876Z,35.15
2019-03-12T23:03:52.052Z,34.94
2019-03-12T23:06:20.314Z,34.41
2019-03-12T23:08:48.453Z,34.28
2019-03-12T23:11:16.674Z,34.51
2019-03-12T23:13:45.208Z,34.97
2019-03-12T23:16:13.443Z,34.36
2019-03-12T23:18:41.738Z,35.21
2019-03-12T23:21:09.928Z,35.55
2019-03-12T23:23:38.146Z,35.28
2019-03-12T23:26:06.415Z,36.14
2019-03-12T23:28:34.703Z,34.41
2019-03-12T23:31:03.220Z,34.70
2019-03-12T23:33:31.459Z,34.75
2019-03-12T23:35:59.790Z,37.62
2019-03-12T23:38:27.991Z,35.24
2019-03-12T23:40:56.174Z,36.43
2019-03-12T23:43:24.529Z,34.91
2019-03-12T23:45:52.690Z,35.56
2019-03-12T23:48:20.900Z,35.75
2019-03-12T23:50:49.084Z,34.88
2019-03-12T23:53:19.532Z,35.36
2019-03-12T23:55:47.831Z,35.63
2019-03-12T23:58:16.042Z,35.40
